createdAt,value
2022-08-03T00:00:27.606Z,54.17
2022-08-03T00:02:54.281Z,54.92
2022-08-03T00:05:20.933Z,54.90
2022-08-03T00:07:48.426Z,55.48
2022-08-03T00:10:16.503Z,54.75
2022-08-03T00:12:43.011Z,55.06
2022-08-03T00:15:11.298Z,54.66
2022-08-03T00:17:52.720Z,54.71
2022-08-03T00:20:21.999Z,55.52
2022-08-03T00:22:49.187Z,55.46
2022-08-03T00:25:16.688Z,56.00
2022-08-03T00:27:43.227Z,57.16
2022-08-03T00:30:10.591Z,56.85
2022-08-03T00:32:37.041Z,56.77
2022-08-03T00:35:09.822Z,56.55
2022-08-03T00:37:40.589Z,56.91
2022-08-03T00:40:12.966Z,57.34
2022-08-03T00:42:58.444Z,56.98
2022-08-03T00:45:30.073Z,57.56
2022-08-03T00:47:57.027Z,57.61
2022-08-03T00:50:25.796Z,57.88
2022-08-03T00:52:54.326Z,57.89
2022-08-03T00:55:28.450Z,57.71
2022-08-03T00:58:15.175Z,58.89
2022-08-03T01:01:01.650Z,58.48
2022-08-03T01:03:48.322Z,58.67
2022-08-03T01:06:44.807Z,59.11
2022-08-03T01:09:49.335Z,59.51
2022-08-03T01:12:45.336Z,60.38
2022-08-03T01:15:25.028Z,59.73
2022-08-03T01:17:57.417Z,59.90
2022-08-03T01:20:31.847Z,60.26
2022-08-03T01:23:28.752Z,59.80
2022-08-03T01:26:03.269Z,60.26
2022-08-03T01:28:48.680Z,60.20
2022-08-03T01:31:21.972Z,60.46
2022-08-03T01:33:55.788Z,59.98
2022-08-03T01:36:26.170Z,59.72
2022-08-03T01:38:55.222Z,60.88
2022-08-03T01:41:33.380Z,61.31
2022-08-03T01:44:29.239Z,61.91
2022-08-03T01:46:51.305Z,61.83
2022-08-03T01:49:18.458Z,61.81
2022-08-03T01:51:56.623Z,61.45
2022-08-03T01:54:43.123Z,62.16
2022-08-03T01:57:10.178Z,62.84
2022-08-03T01:59:38.663Z,63.32
2022-08-03T02:02:28.233Z,63.41
2022-08-03T02:04:55.681Z,62.91
2022-08-03T02:07:23.549Z,62.69
2022-08-03T02:09:52.672Z,62.46
2022-08-03T02:12:22.225Z,63.12
2022-08-03T02:14:49.069Z,62.83
2022-08-03T02:17:16.466Z,62.99
2022-08-03T02:19:44.636Z,62.85
2022-08-03T02:22:12.971Z,62.86
2022-08-03T02:24:40.246Z,62.63
2022-08-03T02:27:14.192Z,62.31
2022-08-03T02:29:42.609Z,62.35
2022-08-03T02:32:14.120Z,62.57
2022-08-03T02:34:45.899Z,62.10
2022-08-03T02:37:13.480Z,62.18
2022-08-03T02:39:42.313Z,62.75
2022-08-03T02:42:12.646Z,63.16
2022-08-03T02:44:40.300Z,63.32
2022-08-03T02:47:11.162Z,63.33
2022-08-03T02:49:50.627Z,63.47
2022-08-03T02:52:23.261Z,63.62
2022-08-03T02:54:53.526Z,64.16
2022-08-03T02:57:22.770Z,64.30
2022-08-03T02:59:51.019Z,64.11
2022-08-03T03:02:19.636Z,64.21
2022-08-03T03:05:50.732Z,63.85
2022-08-03T03:07:37.258Z,64.32
2022-08-03T03:10:22.001Z,64.18
2022-08-03T03:12:51.295Z,64.26
2022-08-03T03:15:18.855Z,65.29
2022-08-03T03:17:46.087Z,65.53
2022-08-03T03:20:14.769Z,65.99
2022-08-03T03:22:43.449Z,66.20
2022-08-03T03:25:11.883Z,66.13
2022-08-03T03:27:39.800Z,65.39
2022-08-03T03:30:07.053Z,65.59
2022-08-03T03:32:33.836Z,65.42
2022-08-03T03:35:01.110Z,65.67
2022-08-03T03:37:27.627Z,66.03
2022-08-03T03:39:54.839Z,66.07
2022-08-03T03:42:21.483Z,66.18
2022-08-03T03:44:48.200Z,67.02
2022-08-03T03:47:14.844Z,67.39
2022-08-03T03:49:43.911Z,67.37
2022-08-03T03:52:10.741Z,67.50
2022-08-03T03:54:42.183Z,67.39
2022-08-03T03:57:10.393Z,67.52
2022-08-03T03:59:41.884Z,67.19
2022-08-03T04:02:10.204Z,66.14
2022-08-03T04:04:57.097Z,66.12
2022-08-03T04:07:44.302Z,66.23
2022-08-03T04:10:34.560Z,66.22
2022-08-03T04:13:03.981Z,65.67
2022-08-03T04:15:33.350Z,65.15
2022-08-03T04:18:02.742Z,65.04
2022-08-03T04:20:32.538Z,65.21
2022-08-03T04:23:01.496Z,65.06
2022-08-03T04:25:32.324Z,65.36
2022-08-03T04:28:29.745Z,64.96
2022-08-03T04:30:50.867Z,65.76
2022-08-03T04:33:19.393Z,65.84
2022-08-03T04:36:01.010Z,66.40
2022-08-03T04:38:31.585Z,66.19
2022-08-03T04:41:00.016Z,66.88
2022-08-03T04:43:27.773Z,66.83
2022-08-03T04:45:55.720Z,66.71
2022-08-03T04:48:22.765Z,66.68
2022-08-03T04:50:49.336Z,66.85
2022-08-03T04:53:16.518Z,66.79
2022-08-03T04:55:43.191Z,67.01
2022-08-03T04:58:09.735Z,66.79
2022-08-03T05:00:36.235Z,66.41
2022-08-03T05:03:02.766Z,66.90
2022-08-03T05:05:49.472Z,66.21
2022-08-03T05:08:16.096Z,66.87
2022-08-03T05:10:47.693Z,66.06
2022-08-03T05:13:14.504Z,65.73
2022-08-03T05:15:43.074Z,65.61
2022-08-03T05:18:13.887Z,64.90
2022-08-03T05:20:41.245Z,64.62
2022-08-03T05:23:07.877Z,64.33
2022-08-03T05:25:34.591Z,63.02
2022-08-03T05:28:01.583Z,63.70
2022-08-03T05:30:34.194Z,63.23
2022-08-03T05:33:02.915Z,63.20
2022-08-03T05:36:02.098Z,62.83
2022-08-03T05:38:23.966Z,62.49
2022-08-03T05:40:57.569Z,63.06
2022-08-03T05:43:43.312Z,62.48
2022-08-03T05:46:11.956Z,61.97
2022-08-03T05:48:39.446Z,61.33
2022-08-03T05:51:07.623Z,61.85
2022-08-03T05:53:34.552Z,61.86
2022-08-03T05:56:13.219Z,61.61
2022-08-03T05:58:48.367Z,61.51
2022-08-03T06:01:16.312Z,59.43
2022-08-03T06:03:43.180Z,59.87
2022-08-03T06:06:09.787Z,59.16
2022-08-03T06:08:36.893Z,59.55
2022-08-03T06:11:04.793Z,59.11
2022-08-03T06:13:32.151Z,58.58
2022-08-03T06:15:58.827Z,58.77
2022-08-03T06:18:25.436Z,58.23
2022-08-03T06:20:52.649Z,58.14
2022-08-03T06:23:19.532Z,58.50
2022-08-03T06:25:46.970Z,58.59
2022-08-03T06:28:51.716Z,58.96
2022-08-03T06:31:06.464Z,58.24
2022-08-03T06:34:30.417Z,54.97
2022-08-03T06:36:19.981Z,54.91
2022-08-03T06:38:46.649Z,54.41
2022-08-03T06:41:13.156Z,53.58
2022-08-03T06:44:03.216Z,52.38
2022-08-03T06:46:26.146Z,52.71
2022-08-03T06:48:52.714Z,52.88
2022-08-03T06:51:19.348Z,53.38
2022-08-03T06:53:45.975Z,53.60
2022-08-03T06:56:12.795Z,53.74
2022-08-03T06:58:39.308Z,53.66
2022-08-03T07:01:05.910Z,53.33
2022-08-03T07:03:32.485Z,52.91
2022-08-03T07:05:59.574Z,53.05
2022-08-03T07:08:34.157Z,53.37
2022-08-03T07:11:01.412Z,53.18
2022-08-03T07:13:28.027Z,52.81
2022-08-03T07:15:55.983Z,52.79
2022-08-03T07:18:29.246Z,52.48
2022-08-03T07:20:57.472Z,51.39
2022-08-03T07:23:24.018Z,51.46
2022-08-03T07:25:51.074Z,49.84
2022-08-03T07:28:18.016Z,49.56
2022-08-03T07:30:44.565Z,49.17
2022-08-03T07:33:11.238Z,48.59
2022-08-03T07:35:37.719Z,47.43
2022-08-03T07:38:04.188Z,46.54
2022-08-03T07:40:31.654Z,46.26
2022-08-03T07:42:58.765Z,45.88
2022-08-03T07:45:26.412Z,45.61
2022-08-03T07:47:54.108Z,46.14
2022-08-03T07:50:21.701Z,46.45
2022-08-03T07:52:49.229Z,46.58
2022-08-03T07:55:21.524Z,46.09
2022-08-03T07:57:59.142Z,46.14
2022-08-03T08:00:25.638Z,44.16
2022-08-03T08:02:52.154Z,44.31
2022-08-03T08:05:18.759Z,44.18
2022-08-03T08:07:50.710Z,43.90
2022-08-03T08:10:19.053Z,44.66
2022-08-03T08:12:46.218Z,43.49
2022-08-03T08:15:13.042Z,42.28
2022-08-03T08:17:52.007Z,42.51
2022-08-03T08:20:27.076Z,41.93
2022-08-03T08:22:57.895Z,41.05
2022-08-03T08:25:25.343Z,40.45
2022-08-03T08:28:31.805Z,41.00
2022-08-03T08:30:39.373Z,40.77
2022-08-03T08:33:05.879Z,40.75
2022-08-03T08:35:32.479Z,40.74
2022-08-03T08:38:05.553Z,40.09
2022-08-03T08:40:32.987Z,40.79
2022-08-03T08:42:59.533Z,39.75
2022-08-03T08:45:26.624Z,39.75
2022-08-03T08:47:59.915Z,39.21
2022-08-03T08:50:28.381Z,39.11
2022-08-03T08:52:56.588Z,38.57
2022-08-03T08:55:23.826Z,37.92
2022-08-03T08:58:05.111Z,37.68
2022-08-03T09:00:32.598Z,36.87
2022-08-03T09:03:00.886Z,36.76
2022-08-03T09:05:53.880Z,36.58
2022-08-03T09:08:14.743Z,35.94
2022-08-03T09:10:41.172Z,35.86
2022-08-03T09:13:07.950Z,35.23
2022-08-03T09:15:34.515Z,35.41
2022-08-03T09:18:04.047Z,35.72
2022-08-03T09:20:33.452Z,35.08
2022-08-03T09:23:59.616Z,34.38
2022-08-03T09:25:59.824Z,33.63
2022-08-03T09:29:01.296Z,33.84
2022-08-03T09:31:30.063Z,33.21
2022-08-03T09:34:00.870Z,32.72
2022-08-03T09:36:50.256Z,32.73
2022-08-03T09:39:19.019Z,33.06
2022-08-03T09:42:05.235Z,32.38
2022-08-03T09:44:42.081Z,32.03
2022-08-03T09:47:10.299Z,31.64
2022-08-03T09:49:38.261Z,31.83
2022-08-03T09:52:32.116Z,31.23
2022-08-03T09:55:02.818Z,31.20
2022-08-03T09:57:32.273Z,30.53
2022-08-03T10:00:14.048Z,30.57
2022-08-03T10:02:42.021Z,30.41
2022-08-03T10:05:10.028Z,29.62
2022-08-03T10:07:45.958Z,29.99
2022-08-03T10:10:30.651Z,29.74
2022-08-03T10:12:59.949Z,29.85
2022-08-03T10:16:22.239Z,29.92
2022-08-03T10:18:13.754Z,29.16
2022-08-03T10:20:52.730Z,29.05
2022-08-03T10:23:21.839Z,29.21
2022-08-03T10:25:55.853Z,29.41
2022-08-03T10:28:23.187Z,28.94
2022-08-03T10:30:52.678Z,29.22
2022-08-03T10:33:49.263Z,28.36
2022-08-03T10:36:12.432Z,28.83
2022-08-03T10:38:52.317Z,28.39
2022-08-03T10:41:23.703Z,28.02
2022-08-03T10:43:56.593Z,28.81
2022-08-03T10:46:23.244Z,28.48
2022-08-03T10:48:52.190Z,27.40
2022-08-03T10:51:19.977Z,26.93
2022-08-03T10:53:54.987Z,27.34
2022-08-03T10:56:53.491Z,27.67
2022-08-03T10:59:46.244Z,27.62
2022-08-03T11:02:14.211Z,28.89
2022-08-03T11:04:41.635Z,28.04
2022-08-03T11:07:25.287Z,27.57
2022-08-03T11:09:56.092Z,27.93
2022-08-03T11:12:30.204Z,27.86
2022-08-03T11:15:04.959Z,26.99
2022-08-03T11:17:33.889Z,26.51
2022-08-03T11:20:13.622Z,27.17
2022-08-03T11:22:54.390Z,26.37
2022-08-03T11:25:53.417Z,26.83
2022-08-03T11:28:28.483Z,26.25
2022-08-03T11:30:55.077Z,25.42
2022-08-03T11:33:31.327Z,25.34
2022-08-03T11:35:59.912Z,25.65
2022-08-03T11:38:26.445Z,24.71
2022-08-03T11:40:54.400Z,24.80
2022-08-03T11:43:31.237Z,25.34
2022-08-03T11:45:59.235Z,25.14
2022-08-03T11:48:28.351Z,24.68
2022-08-03T11:50:55.001Z,24.62
2022-08-03T11:53:21.613Z,24.95
2022-08-03T11:55:53.000Z,24.04
2022-08-03T11:59:15.301Z,22.54
2022-08-03T12:01:12.194Z,22.74
2022-08-03T12:03:38.990Z,22.29
2022-08-03T12:06:09.991Z,23.20
2022-08-03T12:08:36.491Z,23.40
2022-08-03T12:11:06.615Z,22.12
2022-08-03T12:14:26.825Z,22.02
2022-08-03T12:16:30.705Z,21.85
2022-08-03T12:19:06.434Z,21.90
2022-08-03T12:21:33.043Z,21.06
2022-08-03T12:24:04.980Z,20.69
2022-08-03T12:26:45.023Z,21.21
2022-08-03T12:29:25.765Z,20.65
2022-08-03T12:31:52.290Z,21.89
2022-08-03T12:34:18.848Z,21.30
2022-08-03T12:36:53.339Z,21.90
2022-08-03T12:39:23.958Z,21.74
2022-08-03T12:41:54.462Z,21.63
2022-08-03T12:44:31.168Z,22.84
2022-08-03T12:46:58.920Z,21.67
2022-08-03T12:49:26.135Z,21.36
2022-08-03T12:51:52.539Z,20.39
2022-08-03T12:54:24.761Z,20.71
2022-08-03T12:57:15.827Z,20.35
2022-08-03T12:59:52.713Z,20.88
2022-08-03T13:02:23.749Z,20.32
2022-08-03T13:04:52.117Z,22.12
2022-08-03T13:07:20.097Z,22.24
2022-08-03T13:09:57.281Z,20.83
2022-08-03T13:12:27.104Z,21.38
2022-08-03T13:14:59.068Z,20.52
2022-08-03T13:17:26.786Z,21.29
2022-08-03T13:19:53.648Z,20.97
2022-08-03T13:22:28.787Z,20.52
2022-08-03T13:24:57.378Z,19.75
2022-08-03T13:28:03.565Z,19.52
2022-08-03T13:30:11.529Z,19.91
2022-08-03T13:32:38.411Z,19.56
2022-08-03T13:35:05.837Z,20.28
2022-08-03T13:37:32.603Z,20.06
2022-08-03T13:40:02.272Z,18.96
2022-08-03T13:42:30.953Z,18.42
2022-08-03T13:44:57.703Z,20.31
2022-08-03T13:47:24.280Z,20.45
2022-08-03T13:49:54.289Z,19.66
2022-08-03T13:52:30.304Z,18.42
2022-08-03T13:54:56.867Z,18.40
2022-08-03T13:58:04.378Z,18.45
2022-08-03T14:00:10.649Z,17.99
2022-08-03T14:02:38.392Z,18.08
2022-08-03T14:05:05.477Z,18.62
2022-08-03T14:07:32.017Z,17.49
2022-08-03T14:09:58.467Z,17.95
2022-08-03T14:12:25.031Z,16.87
2022-08-03T14:14:51.499Z,18.59
2022-08-03T14:17:18.262Z,17.38
2022-08-03T14:19:53.503Z,17.45
2022-08-03T14:22:21.123Z,17.28
2022-08-03T14:24:47.772Z,17.45
2022-08-03T14:27:16.369Z,17.77
2022-08-03T14:29:43.155Z,17.32
2022-08-03T14:32:13.067Z,16.55
2022-08-03T14:34:40.894Z,17.21
2022-08-03T14:37:07.663Z,16.84
2022-08-03T14:42:21.623Z,16.68
2022-08-03T14:44:48.190Z,17.18
2022-08-03T14:47:15.042Z,15.71
2022-08-03T14:50:37.431Z,16.25
2022-08-03T14:52:28.866Z,17.04
2022-08-03T14:54:55.340Z,16.15
2022-08-03T14:57:22.360Z,15.84
2022-08-03T14:59:56.299Z,15.33
2022-08-03T15:02:25.462Z,15.39
2022-08-03T15:04:52.777Z,15.15
2022-08-03T15:07:20.745Z,15.34
2022-08-03T15:09:47.546Z,15.23
2022-08-03T15:12:14.047Z,14.97
2022-08-03T15:14:40.637Z,14.73
2022-08-03T15:17:07.582Z,15.10
2022-08-03T15:20:02.416Z,14.85
2022-08-03T15:22:25.461Z,14.59
2022-08-03T15:26:01.620Z,14.71
2022-08-03T15:28:04.035Z,14.38
2022-08-03T15:30:35.819Z,13.97
2022-08-03T15:33:03.132Z,14.83
2022-08-03T15:35:29.594Z,14.97
2022-08-03T15:37:56.153Z,14.19
2022-08-03T15:40:22.572Z,14.16
2022-08-03T15:42:49.069Z,14.32
2022-08-03T15:45:17.798Z,14.21
2022-08-03T15:47:47.107Z,14.37
2022-08-03T15:50:13.668Z,14.05
2022-08-03T15:52:40.137Z,14.12
2022-08-03T15:55:07.224Z,13.74
2022-08-03T15:57:33.755Z,14.06
2022-08-03T16:00:20.498Z,14.51
2022-08-03T16:03:00.017Z,14.99
2022-08-03T16:05:26.535Z,15.38
2022-08-03T16:08:03.251Z,15.28
2022-08-03T16:10:31.083Z,14.89
2022-08-03T16:12:58.855Z,14.52
2022-08-03T16:15:25.670Z,14.83
2022-08-03T16:17:52.279Z,14.61
2022-08-03T16:20:34.181Z,14.81
2022-08-03T16:23:05.580Z,14.13
2022-08-03T16:25:42.362Z,14.44
2022-08-03T16:28:13.916Z,15.34
2022-08-03T16:30:43.873Z,14.76
2022-08-03T16:33:17.232Z,14.71
2022-08-03T16:35:45.465Z,14.85
2022-08-03T16:38:16.553Z,14.78
2022-08-03T16:40:45.683Z,14.07
2022-08-03T16:43:18.957Z,14.68
2022-08-03T16:45:49.283Z,14.51
2022-08-03T16:48:17.049Z,14.20
2022-08-03T16:50:44.319Z,14.39
2022-08-03T16:53:16.343Z,14.55
2022-08-03T16:55:53.612Z,14.25
2022-08-03T16:58:41.875Z,14.03
2022-08-03T17:01:22.507Z,14.64
2022-08-03T17:04:04.614Z,14.72
2022-08-03T17:06:35.657Z,14.90
2022-08-03T17:09:10.648Z,15.48
2022-08-03T17:11:39.011Z,15.63
2022-08-03T17:14:11.542Z,15.26
2022-08-03T17:16:38.953Z,15.73
2022-08-03T17:19:12.732Z,16.01
2022-08-03T17:21:45.282Z,16.45
2022-08-03T17:24:31.123Z,16.50
2022-08-03T17:27:01.953Z,16.88
2022-08-03T17:29:29.856Z,17.08
2022-08-03T17:31:56.907Z,17.28
2022-08-03T17:34:26.714Z,17.45
2022-08-03T17:37:17.794Z,17.95
2022-08-03T17:39:58.089Z,19.43
2022-08-03T17:42:38.848Z,19.74
2022-08-03T17:45:07.367Z,20.49
2022-08-03T17:47:43.229Z,22.62
2022-08-03T17:50:24.235Z,20.60
2022-08-03T17:53:07.114Z,23.91
2022-08-03T17:55:56.043Z,20.41
2022-08-03T17:59:08.732Z,21.41
2022-08-03T18:02:12.212Z,20.15
2022-08-03T18:05:00.698Z,23.08
2022-08-03T18:07:41.107Z,24.33
2022-08-03T18:10:11.608Z,23.54
2022-08-03T18:12:54.958Z,24.11
2022-08-03T18:15:30.075Z,22.67
2022-08-03T18:18:10.404Z,22.57
2022-08-03T18:20:42.089Z,23.11
2022-08-03T18:23:25.185Z,25.11
2022-08-03T18:25:59.195Z,23.20
2022-08-03T18:28:27.534Z,25.35
2022-08-03T18:30:55.671Z,26.81
2022-08-03T18:34:18.573Z,27.07
2022-08-03T18:36:18.542Z,26.41
2022-08-03T18:38:51.577Z,26.64
2022-08-03T18:41:31.859Z,26.72
2022-08-03T18:47:07.172Z,27.57
2022-08-03T18:49:51.514Z,28.37
2022-08-03T18:52:35.358Z,28.50
2022-08-03T18:55:21.072Z,28.54
2022-08-03T19:01:15.198Z,29.33
2022-08-03T19:04:00.431Z,29.87
2022-08-03T19:06:31.693Z,30.18
2022-08-03T19:09:12.977Z,30.03
2022-08-03T19:14:56.334Z,30.83
2022-08-03T19:17:29.526Z,31.02
2022-08-03T19:19:57.887Z,31.45
2022-08-03T19:22:27.374Z,31.89
2022-08-03T19:24:55.224Z,31.86
2022-08-03T19:27:27.022Z,32.38
2022-08-03T19:29:59.048Z,32.78
2022-08-03T19:32:29.648Z,32.36
2022-08-03T19:34:57.801Z,32.14
2022-08-03T19:37:27.469Z,32.56
2022-08-03T19:40:05.897Z,33.50
2022-08-03T19:42:45.084Z,33.32
2022-08-03T19:45:17.083Z,33.51
2022-08-03T19:47:58.251Z,34.00
2022-08-03T19:50:25.257Z,34.51
2022-08-03T19:52:53.025Z,34.83
2022-08-03T19:55:20.165Z,34.93
2022-08-03T19:57:49.355Z,34.80
2022-08-03T20:00:19.272Z,34.74
2022-08-03T20:02:46.201Z,34.66
2022-08-03T20:05:15.304Z,34.77
2022-08-03T20:07:47.973Z,34.97
2022-08-03T20:10:16.520Z,35.32
2022-08-03T20:12:44.680Z,35.79
2022-08-03T20:15:11.511Z,36.43
2022-08-03T20:17:56.355Z,36.34
2022-08-03T20:20:37.137Z,36.53
2022-08-03T20:23:12.011Z,36.82
2022-08-03T20:25:57.109Z,36.96
2022-08-03T20:28:35.072Z,36.90
2022-08-03T20:31:18.280Z,36.80
2022-08-03T20:33:46.065Z,37.34
2022-08-03T20:36:18.129Z,37.52
2022-08-03T20:38:47.495Z,37.34
2022-08-03T20:41:15.959Z,37.89
2022-08-03T20:43:42.878Z,38.22
2022-08-03T20:46:29.446Z,38.37
2022-08-03T20:48:58.779Z,38.78
2022-08-03T20:51:50.426Z,38.89
2022-08-03T20:54:28.664Z,39.35
2022-08-03T20:56:58.155Z,39.13
2022-08-03T21:02:19.859Z,40.16
2022-08-03T21:04:55.942Z,40.07
2022-08-03T21:07:23.935Z,40.88
2022-08-03T21:09:53.343Z,40.55
2022-08-03T21:12:49.107Z,41.08
2022-08-03T21:12:59.027Z,27.49
2022-08-03T21:13:00.963Z,29.21
2022-08-03T21:13:01.612Z,30.28
2022-08-03T21:13:07.828Z,39.65
2022-08-03T21:16:11.841Z,40.83
2022-08-03T21:18:10.969Z,40.98
2022-08-03T21:20:40.810Z,41.53
2022-08-03T21:23:09.425Z,41.56
2022-08-03T21:25:37.849Z,41.60
2022-08-03T21:28:06.004Z,41.40
2022-08-03T21:30:32.719Z,41.50
2022-08-03T21:32:59.210Z,41.62
2022-08-03T21:35:26.600Z,42.24
2022-08-03T21:38:12.874Z,42.16
2022-08-03T21:40:40.811Z,42.83
2022-08-03T21:43:07.841Z,42.70
2022-08-03T21:45:45.446Z,43.19
2022-08-03T21:48:13.608Z,43.25
2022-08-03T21:50:42.224Z,44.06
2022-08-03T21:53:10.876Z,43.90
2022-08-03T21:55:39.665Z,44.20
2022-08-03T21:58:06.680Z,44.43
2022-08-03T22:00:33.721Z,44.26
2022-08-03T22:03:15.215Z,44.82
2022-08-03T22:05:44.353Z,45.37
2022-08-03T22:08:15.034Z,45.12
2022-08-03T22:10:44.488Z,45.38
2022-08-03T22:13:13.795Z,45.76
2022-08-03T22:15:41.467Z,45.84
2022-08-03T22:18:08.400Z,46.25
2022-08-03T22:20:35.504Z,46.24
2022-08-03T22:23:05.411Z,46.46
2022-08-03T22:25:35.715Z,46.93
2022-08-03T22:28:10.223Z,46.60
2022-08-03T22:30:37.880Z,47.04
2022-08-03T22:33:11.162Z,46.89
2022-08-03T22:35:48.817Z,47.25
2022-08-03T22:38:18.806Z,47.95
2022-08-03T22:40:48.699Z,47.57
2022-08-03T22:43:15.335Z,47.47
2022-08-03T22:46:10.303Z,47.87
2022-08-03T22:48:40.855Z,47.85
2022-08-03T22:51:08.964Z,48.00
2022-08-03T22:53:35.957Z,48.21
2022-08-03T22:56:03.187Z,48.93
2022-08-03T22:58:29.703Z,49.11
2022-08-03T23:01:02.843Z,49.33
2022-08-03T23:04:01.248Z,49.41
2022-08-03T23:06:21.837Z,49.43
2022-08-03T23:08:50.135Z,49.94
2022-08-03T23:11:18.502Z,49.65
2022-08-03T23:13:52.291Z,50.03
2022-08-03T23:16:29.270Z,49.71
2022-08-03T23:18:58.771Z,50.04
2022-08-03T23:22:00.592Z,50.40
2022-08-03T23:24:25.261Z,50.47
2022-08-03T23:26:57.603Z,50.24
2022-08-03T23:29:26.030Z,51.10
2022-08-03T23:31:53.648Z,50.76
2022-08-03T23:34:40.009Z,50.63
2022-08-03T23:37:06.544Z,50.85
2022-08-03T23:39:35.017Z,50.53
2022-08-03T23:42:02.936Z,50.62
2022-08-03T23:44:31.024Z,50.85
2022-08-03T23:46:57.496Z,51.29
2022-08-03T23:49:23.963Z,50.99
2022-08-03T23:51:54.555Z,51.02
2022-08-03T23:54:36.355Z,50.74
2022-08-03T23:57:15.879Z,50.08
2022-08-03T23:59:48.532Z,50.45
